createdAt,value
2023-04-09T00:03:59.604Z,94501.00
2023-04-09T00:08:04.268Z,94501.00
2023-04-09T00:12:07.784Z,94512.00
2023-04-09T00:16:11.330Z,94521.00
2023-04-09T00:20:16.322Z,94517.00
2023-04-09T00:24:19.837Z,94508.00
2023-04-09T00:28:48.820Z,94519.00
2023-04-09T00:32:54.604Z,94490.00
2023-04-09T00:36:59.478Z,94494.00
2023-04-09T00:41:03.750Z,94517.00
2023-04-09T00:45:08.801Z,94494.00
2023-04-09T00:49:12.343Z,94495.00
2023-04-09T00:53:18.184Z,94505.00
2023-04-09T00:57:21.948Z,94499.00
2023-04-09T01:01:25.632Z,94506.00
2023-04-09T01:05:37.105Z,94481.00
2023-04-09T01:09:50.385Z,94471.00
2023-04-09T01:14:18.131Z,94501.00
2023-04-09T01:18:37.913Z,94474.00
2023-04-09T01:22:57.821Z,94467.00
2023-04-09T01:27:10.455Z,94496.00
2023-04-09T01:36:41.256Z,94499.00
2023-04-09T01:40:45.443Z,94479.00
2023-04-09T01:44:49.978Z,94502.00
2023-04-09T01:49:20.233Z,94504.00
2023-04-09T01:53:23.990Z,94482.00
2023-04-09T01:57:27.610Z,94488.00
2023-04-09T02:06:15.414Z,94486.00
2023-04-09T02:10:43.463Z,94511.00
2023-04-09T02:14:55.908Z,94499.00
2023-04-09T02:19:17.139Z,94477.00
2023-04-09T02:23:58.450Z,94497.00
2023-04-09T02:28:17.544Z,94497.00
2023-04-09T02:32:25.516Z,94482.00
2023-04-09T02:36:42.603Z,94493.00
2023-04-09T02:41:01.231Z,94496.00
2023-04-09T02:45:10.345Z,94476.00
2023-04-09T02:49:18.834Z,94491.00
2023-04-09T02:53:28.021Z,94501.00
2023-04-09T02:57:38.841Z,94500.00
2023-04-09T03:01:44.966Z,94482.00
2023-04-09T03:05:53.680Z,94494.00
2023-04-09T03:10:02.725Z,94489.00
2023-04-09T03:14:09.585Z,94497.00
2023-04-09T03:18:16.035Z,94474.00
2023-04-09T03:22:29.174Z,94485.00
2023-04-09T03:26:39.447Z,94491.00
2023-04-09T03:30:54.187Z,94496.00
2023-04-09T03:35:00.598Z,94500.00
2023-04-09T03:39:07.957Z,94501.00
2023-04-09T03:43:17.987Z,94506.00
2023-04-09T03:47:38.811Z,94492.00
2023-04-09T03:51:45.131Z,94483.00
2023-04-09T03:55:59.230Z,94499.00
2023-04-09T04:00:07.032Z,94517.00
2023-04-09T04:04:30.303Z,94504.00
2023-04-09T04:08:38.697Z,94494.00
2023-04-09T04:12:46.643Z,94504.00
2023-04-09T04:16:59.602Z,94517.00
2023-04-09T04:21:19.282Z,94514.00
2023-04-09T04:25:34.388Z,94525.00
2023-04-09T04:29:44.370Z,94525.00
2023-04-09T04:34:13.683Z,94515.00
2023-04-09T04:38:39.333Z,94532.00
2023-04-09T04:42:56.564Z,94506.00
2023-04-09T04:47:21.205Z,94529.00
2023-04-09T04:52:00.506Z,94518.00
2023-04-09T04:56:17.184Z,94517.00
2023-04-09T05:00:40.022Z,94522.00
2023-04-09T05:04:50.576Z,94541.00
2023-04-09T05:09:09.729Z,94528.00
2023-04-09T05:14:11.051Z,94538.00
2023-04-09T05:18:19.844Z,94541.00
2023-04-09T05:27:14.237Z,94543.00
2023-04-09T05:31:47.662Z,94534.00
2023-04-09T05:40:48.787Z,94563.00
2023-04-09T06:05:19.152Z,94576.00
2023-04-09T06:52:04.528Z,94586.00
2023-04-09T07:02:21.740Z,94613.00
2023-04-09T07:06:36.754Z,94609.00
2023-04-09T07:10:47.669Z,94620.00
2023-04-09T07:14:54.443Z,94630.00
2023-04-09T07:19:05.541Z,94617.00
2023-04-09T07:23:11.128Z,94626.00
2023-04-09T07:27:16.880Z,94614.00
2023-04-09T07:31:23.784Z,94629.00
2023-04-09T07:35:30.989Z,94632.00
2023-04-09T07:39:37.576Z,94619.00
2023-04-09T07:43:43.958Z,94606.00
2023-04-09T07:47:51.780Z,94623.00
2023-04-09T07:51:58.566Z,94621.00
2023-04-09T07:56:05.196Z,94626.00
2023-04-09T08:00:10.233Z,94625.00
2023-04-09T08:04:18.686Z,94636.00
2023-04-09T08:08:24.306Z,94634.00
2023-04-09T08:12:29.849Z,94639.00
2023-04-09T08:16:36.292Z,94642.00
2023-04-09T08:20:45.382Z,94653.00
2023-04-09T08:24:54.849Z,94652.00
2023-04-09T08:28:58.628Z,94652.00
2023-04-09T08:33:04.916Z,94638.00
2023-04-09T08:37:09.671Z,94656.00
2023-04-09T08:41:21.306Z,94659.00
2023-04-09T08:45:26.210Z,94658.00
2023-04-09T08:49:30.691Z,94668.00
2023-04-09T08:53:41.872Z,94678.00
2023-04-09T08:57:48.143Z,94682.00
2023-04-09T09:01:54.753Z,94664.00
2023-04-09T09:05:59.115Z,94679.00
2023-04-09T09:10:04.855Z,94672.00
2023-04-09T09:14:13.166Z,94679.00
2023-04-09T09:18:17.005Z,94670.00
2023-04-09T09:22:23.602Z,94676.00
2023-04-09T09:26:30.409Z,94690.00
2023-04-09T09:30:36.719Z,94689.00
2023-04-09T09:34:41.302Z,94674.00
2023-04-09T09:38:56.745Z,94672.00
2023-04-09T09:43:02.521Z,94674.00
2023-04-09T09:47:08.939Z,94682.00
2023-04-09T09:51:15.163Z,94672.00
2023-04-09T09:55:22.224Z,94694.00
2023-04-09T09:59:34.249Z,94671.00
2023-04-09T10:03:43.528Z,94677.00
2023-04-09T10:07:49.707Z,94673.00
2023-04-09T10:11:54.677Z,94677.00
2023-04-09T10:15:59.171Z,94674.00
2023-04-09T10:20:16.594Z,94680.00
2023-04-09T10:24:21.584Z,94681.00
2023-04-09T10:28:25.050Z,94688.00
2023-04-09T10:32:29.459Z,94667.00
2023-04-09T10:36:39.918Z,94669.00
2023-04-09T10:40:51.546Z,94660.00
2023-04-09T10:45:12.623Z,94662.00
2023-04-09T10:49:19.681Z,94669.00
2023-04-09T10:53:31.731Z,94677.00
2023-04-09T10:57:36.655Z,94676.00
2023-04-09T11:01:41.943Z,94666.00
2023-04-09T11:05:53.456Z,94679.00
2023-04-09T11:10:00.862Z,94661.00
2023-04-09T11:14:09.323Z,94676.00
2023-04-09T11:18:16.860Z,94667.00
2023-04-09T11:22:21.416Z,94671.00
2023-04-09T11:26:37.705Z,94674.00
2023-04-09T11:30:47.106Z,94663.00
2023-04-09T11:34:57.603Z,94666.00
2023-04-09T11:39:04.461Z,94657.00
2023-04-09T11:43:10.363Z,94658.00
2023-04-09T11:47:15.082Z,94673.00
2023-04-09T11:51:31.246Z,94663.00
2023-04-09T11:55:36.093Z,94671.00
2023-04-09T11:59:42.333Z,94672.00
2023-04-09T12:03:47.291Z,94665.00
2023-04-09T12:07:56.541Z,94667.00
2023-04-09T12:12:02.353Z,94658.00
2023-04-09T12:16:11.029Z,94653.00
2023-04-09T12:20:17.407Z,94661.00
2023-04-09T12:24:23.420Z,94670.00
2023-04-09T12:28:27.350Z,94669.00
2023-04-09T12:32:35.564Z,94665.00
2023-04-09T12:36:41.976Z,94682.00
2023-04-09T12:40:45.897Z,94673.00
2023-04-09T12:44:49.387Z,94671.00
2023-04-09T12:48:56.789Z,94664.00
2023-04-09T12:53:00.026Z,94663.00
2023-04-09T12:57:03.797Z,94665.00
2023-04-09T13:01:07.649Z,94674.00
2023-04-09T13:05:13.902Z,94666.00
2023-04-09T13:09:18.077Z,94660.00
2023-04-09T13:13:22.920Z,94657.00
2023-04-09T13:17:26.670Z,94658.00
2023-04-09T13:21:32.459Z,94667.00
2023-04-09T13:25:36.137Z,94671.00
2023-04-09T13:29:39.864Z,94658.00
2023-04-09T13:33:43.593Z,94663.00
2023-04-09T13:37:48.588Z,94671.00
2023-04-09T13:41:52.129Z,94666.00
2023-04-09T13:45:56.226Z,94666.00
2023-04-09T13:49:59.776Z,94668.00
2023-04-09T13:54:06.078Z,94667.00
2023-04-09T13:58:10.976Z,94666.00
2023-04-09T14:02:15.605Z,94669.00
2023-04-09T14:06:22.179Z,94674.00
2023-04-09T14:10:27.895Z,94665.00
2023-04-09T14:14:33.696Z,94667.00
2023-04-09T14:18:40.230Z,94673.00
2023-04-09T14:22:50.108Z,94654.00
2023-04-09T14:26:57.947Z,94654.00
2023-04-09T14:31:02.416Z,94661.00
2023-04-09T14:35:06.809Z,94668.00
2023-04-09T14:39:16.216Z,94656.00
2023-04-09T14:43:23.776Z,94662.00
2023-04-09T14:47:27.915Z,94658.00
2023-04-09T14:51:31.771Z,94673.00
2023-04-09T14:55:36.642Z,94666.00
2023-04-09T14:59:42.019Z,94658.00
2023-04-09T15:03:47.234Z,94666.00
2023-04-09T15:07:51.485Z,94658.00
2023-04-09T15:11:56.489Z,94652.00
2023-04-09T15:16:01.913Z,94656.00
2023-04-09T15:20:06.293Z,94664.00
2023-04-09T15:24:11.341Z,94661.00
2023-04-09T15:28:16.148Z,94655.00
2023-04-09T15:32:22.199Z,94655.00
2023-04-09T15:36:29.180Z,94652.00
2023-04-09T15:40:33.566Z,94661.00
2023-04-09T15:44:41.449Z,94662.00
2023-04-09T15:48:47.245Z,94656.00
2023-04-09T15:52:51.319Z,94659.00
2023-04-09T15:56:55.029Z,94651.00
2023-04-09T16:00:59.496Z,94650.00
2023-04-09T16:05:04.638Z,94643.00
2023-04-09T16:09:08.978Z,94654.00
2023-04-09T16:13:13.386Z,94656.00
2023-04-09T16:17:17.245Z,94654.00
2023-04-09T16:21:25.430Z,94632.00
2023-04-09T16:25:31.747Z,94649.00
2023-04-09T16:29:37.296Z,94646.00
2023-04-09T16:33:42.145Z,94644.00
2023-04-09T16:37:52.178Z,94667.00
2023-04-09T16:41:56.038Z,94662.00
2023-04-09T16:46:03.678Z,94662.00
2023-04-09T16:50:12.142Z,94673.00
2023-04-09T16:54:18.759Z,94675.00
2023-04-09T16:58:22.355Z,94677.00
2023-04-09T17:02:28.066Z,94683.00
2023-04-09T17:06:34.104Z,94667.00
2023-04-09T17:10:41.923Z,94698.00
2023-04-09T17:14:46.378Z,94693.00
2023-04-09T17:18:52.066Z,94684.00
2023-04-09T17:22:57.427Z,94681.00
2023-04-09T17:27:09.259Z,94676.00
2023-04-09T17:31:17.302Z,94684.00
2023-04-09T17:35:22.485Z,94688.00
2023-04-09T17:39:30.500Z,94694.00
2023-04-09T17:43:39.278Z,94697.00
2023-04-09T17:47:44.114Z,94703.00
2023-04-09T17:51:49.108Z,94706.00
2023-04-09T17:55:55.474Z,94712.00
2023-04-09T18:00:08.810Z,94719.00
2023-04-09T18:04:23.856Z,94723.00
2023-04-09T18:08:30.127Z,94711.00
2023-04-09T18:12:36.790Z,94726.00
2023-04-09T18:16:44.621Z,94718.00
2023-04-09T18:20:55.238Z,94715.00
2023-04-09T18:25:04.199Z,94730.00
2023-04-09T18:29:08.837Z,94729.00
2023-04-09T18:33:18.364Z,94733.00
2023-04-09T18:37:23.729Z,94739.00
2023-04-09T18:41:33.972Z,94723.00
2023-04-09T18:45:43.438Z,94739.00
2023-04-09T18:49:50.009Z,94735.00
2023-04-09T18:54:03.703Z,94750.00
2023-04-09T18:58:13.484Z,94727.00
2023-04-09T19:02:19.854Z,94750.00
2023-04-09T19:06:33.427Z,94751.00
2023-04-09T19:10:37.947Z,94753.00
2023-04-09T19:14:44.184Z,94741.00
2023-04-09T19:18:50.417Z,94741.00
2023-04-09T19:22:58.805Z,94762.00
2023-04-09T19:27:10.368Z,94755.00
2023-04-09T19:31:18.783Z,94763.00
2023-04-09T19:35:41.330Z,94748.00
2023-04-09T19:39:48.582Z,94768.00
2023-04-09T19:43:54.460Z,94753.00
2023-04-09T19:48:00.312Z,94747.00
2023-04-09T19:52:18.372Z,94755.00
2023-04-09T19:56:26.359Z,94732.00
2023-04-09T20:00:34.758Z,94762.00
2023-04-09T20:04:41.002Z,94766.00
2023-04-09T20:08:45.883Z,94755.00
2023-04-09T20:12:55.133Z,94765.00
2023-04-09T20:17:05.010Z,94769.00
2023-04-09T20:21:15.867Z,94759.00
2023-04-09T20:25:21.963Z,94761.00
2023-04-09T20:29:32.064Z,94762.00
2023-04-09T20:33:40.511Z,94762.00
2023-04-09T20:37:50.330Z,94760.00
2023-04-09T20:42:05.666Z,94744.00
2023-04-09T20:46:15.129Z,94763.00
2023-04-09T20:50:23.550Z,94760.00
2023-04-09T20:54:33.987Z,94760.00
2023-04-09T20:58:49.011Z,94753.00
2023-04-09T21:03:23.558Z,94762.00
2023-04-09T21:07:34.704Z,94773.00
2023-04-09T21:11:45.101Z,94747.00
2023-04-09T21:15:55.294Z,94766.00
2023-04-09T21:20:05.864Z,94774.00
2023-04-09T21:24:16.489Z,94780.00
2023-04-09T21:28:49.388Z,94777.00
2023-04-09T21:33:02.410Z,94777.00
2023-04-09T21:37:12.376Z,94765.00
2023-04-09T21:42:03.020Z,94756.00
2023-04-09T21:46:22.224Z,94751.00
2023-04-09T21:50:33.632Z,94744.00
2023-04-09T21:55:01.346Z,94771.00
2023-04-09T21:59:16.564Z,94756.00
2023-04-09T22:03:44.819Z,94752.00
2023-04-09T22:07:53.836Z,94770.00
2023-04-09T22:12:20.797Z,94767.00
2023-04-09T22:16:29.598Z,94782.00
2023-04-09T22:25:04.755Z,94769.00
2023-04-09T22:29:16.325Z,94760.00
2023-04-09T22:33:37.810Z,94774.00
2023-04-09T22:37:48.985Z,94774.00
2023-04-09T22:46:47.068Z,94783.00
2023-04-09T22:51:10.663Z,94786.00
2023-04-09T22:55:44.130Z,94790.00
2023-04-09T23:00:13.617Z,94784.00
2023-04-09T23:04:47.184Z,94762.00
2023-04-09T23:13:34.421Z,94786.00
2023-04-09T23:17:46.823Z,94785.00
2023-04-09T23:22:09.139Z,94771.00
2023-04-09T23:26:15.052Z,94776.00
2023-04-09T23:30:34.859Z,94794.00
2023-04-09T23:34:42.204Z,94781.00
2023-04-09T23:39:01.084Z,94777.00
2023-04-09T23:43:34.828Z,94771.00
2023-04-09T23:57:38.945Z,94781.00
